Hujirt, Mongolia
Current Conditions -  °F | °C
As of 10:00 AM on Friday 28 Nov 2014 (Local Time) from ZMUB Reporting Station
Broken Clouds Broken Clouds  
Wind Chill:   Ceiling: 25000
Heat Index:   Visibility: 4mi
Dew Point: -9°   Wind: 2mph
Humidity: 66%   Direction: NA
Pressure: 29.62"   Gusts: NA
Location:  46.9°N, 102.77°E
Report Text: ZMUB 280200Z VRB01MPS 6000NW BKN250 M18/M23 Q1003 NOSIG RMK QFE646.4 65 NW MO
Loading
Personal Weather Stations






























Interactive Weather Map New forecast layout! Learn more

10-Day Weather Forecast

Advertisements
Track Severe Weather on mobile